PWSweather.com
Personal Weather Stations
Station Observations
CRNINF
Briga AltaIT

Briga AltaIT

Lat: 44.1474858, Lon: 7.7359028

Elevation: 4542.8

Station Type: PCE-FWS20

Latest ConditionsUpdated 8:00:07 AM GMT+01:01 Tuesday, Sep 26, 2017
Currently Today's Max Today's Min Today's Average
Temperature 48.2°F9.0°C 48.2°F9.0°C 45.1°F7.3°C 46.7°F8.2°C
Dew Point 42.3°F5.7°C 44.8°F7.1°C 42.1°F5.6°C 43.1°F6.2°C
Winds 1.8 mph NW2.9 kmh NW 3.7 mph WSW6.0 kmh WSW - 2.3 mph 3.7 kmh
Wind Gusts 9.8 mph15.8 kmh 15.2 mph24.5 kmh - -
Humidity 80% 94% 80% 87%
Pressure 29.95 in1014.2 mb 29.95 in1014.2 mb 29.92 in1013.2 mb -
Precipitation - 0.02 in0.5 mm - -
Hour Temp Dew Point Humidity Winds Wind Gusts Pressure Precip Precip Rate Daily Precip Total
08:00 AM 48.2°F9.0°C 42.3°F5.7°C 80% 1.8 mph NW2.9 kmh NW 9.8 mph15.8 kmh 29.95 in1014.2 mb 0.00 in0.0 mm 0.00 in0.0 mm 0.02 in0.5 mm
07:45 AM 47.5°F8.6°C 42.3°F5.7°C 82% 2.1 mph WNW3.4 kmh WNW 6.9 mph11.1 kmh 29.94 in1013.9 mb 0.00 in0.0 mm 0.00 in0.0 mm 0.02 in0.5 mm
07:30 AM 47.3°F8.5°C 42.1°F5.6°C 82% 2.2 mph ENE3.5 kmh ENE 9.8 mph15.8 kmh 29.95 in1014.2 mb 0.00 in0.0 mm 0.00 in0.0 mm 0.02 in0.5 mm
07:15 AM 47.3°F8.5°C 42.4°F5.8°C 83% 2.7 mph SE4.3 kmh SE 6.9 mph11.1 kmh 29.94 in1013.9 mb 0.00 in0.0 mm 0.00 in0.0 mm 0.02 in0.5 mm
07:00 AM 47.1°F8.4°C 42.2°F5.7°C 83% 2.9 mph SW4.7 kmh SW 7.6 mph12.2 kmh 29.94 in1013.9 mb 0.00 in0.0 mm 0.00 in0.0 mm 0.02 in0.5 mm
06:45 AM 47.1°F8.4°C 42.2°F5.7°C 83% 3.7 mph WSW6.0 kmh WSW 13.6 mph21.9 kmh 29.94 in1013.9 mb 0.00 in0.0 mm 0.00 in0.0 mm 0.02 in0.5 mm
06:30 AM 46.6°F8.1°C 42.3°F5.7°C 85% 3.6 mph NW5.8 kmh NW 10.7 mph17.2 kmh 29.93 in1013.5 mb 0.00 in0.0 mm 0.00 in0.0 mm 0.02 in0.5 mm
06:15 AM 46.0°F7.8°C 43.0°F6.1°C 89% 2.7 mph NW4.3 kmh NW 15.2 mph24.5 kmh 29.93 in1013.5 mb 0.00 in0.0 mm 0.00 in0.0 mm 0.02 in0.5 mm
06:00 AM 45.1°F7.3°C 42.1°F5.6°C 89% 1.2 mph N1.9 kmh N 3.8 mph6.1 kmh 29.93 in1013.5 mb 0.00 in0.0 mm 0.00 in0.0 mm 0.02 in0.5 mm
05:45 AM 46.4°F8.0°C 42.4°F5.8°C 86% 1.4 mph NW2.3 kmh NW 5.4 mph8.7 kmh 29.93 in1013.5 mb 0.00 in0.0 mm 0.00 in0.0 mm 0.02 in0.5 mm
05:30 AM 46.6°F8.1°C 42.3°F5.7°C 85% 3.3 mph WSW5.3 kmh WSW 9.8 mph15.8 kmh 29.93 in1013.5 mb 0.00 in0.0 mm 0.00 in0.0 mm 0.02 in0.5 mm
05:15 AM 46.9°F8.3°C 42.7°F5.9°C 85% 3.0 mph SW4.8 kmh SW 10.7 mph17.2 kmh 29.93 in1013.5 mb 0.00 in0.0 mm 0.00 in0.0 mm 0.02 in0.5 mm
05:00 AM 46.8°F8.2°C 43.4°F6.3°C 88% 2.7 mph NW4.3 kmh NW 11.4 mph18.3 kmh 29.93 in1013.5 mb 0.00 in0.0 mm 0.00 in0.0 mm 0.02 in0.5 mm
04:45 AM 46.2°F7.9°C 43.5°F6.4°C 90% 0.9 mph N1.4 kmh N 3.1 mph5.0 kmh 29.93 in1013.5 mb 0.00 in0.0 mm 0.00 in0.0 mm 0.02 in0.5 mm
04:30 AM 46.6°F8.1°C 43.8°F6.6°C 90% 1.8 mph WNW2.9 kmh WNW 7.6 mph12.2 kmh 29.92 in1013.2 mb 0.00 in0.0 mm 0.00 in0.0 mm 0.02 in0.5 mm
04:15 AM 46.2°F7.9°C 44.3°F6.8°C 93% 1.2 mph N1.9 kmh N 3.1 mph5.0 kmh 29.92 in1013.2 mb 0.00 in0.0 mm 0.00 in0.0 mm 0.02 in0.5 mm
04:00 AM 46.6°F8.1°C 43.8°F6.6°C 90% 1.8 mph NW2.9 kmh NW 6.9 mph11.1 kmh 29.93 in1013.5 mb 0.00 in0.0 mm 0.00 in0.0 mm 0.02 in0.5 mm
03:45 AM 46.9°F8.3°C 44.7°F7.1°C 92% 3.4 mph NW5.5 kmh NW 10.7 mph17.2 kmh 29.93 in1013.5 mb 0.00 in0.0 mm 0.00 in0.0 mm 0.02 in0.5 mm
03:30 AM 46.4°F8.0°C 44.8°F7.1°C 94% 1.3 mph W2.1 kmh W 9.8 mph15.8 kmh 29.93 in1013.5 mb 0.00 in0.0 mm 0.00 in0.0 mm 0.02 in0.5 mm
03:15 AM 46.8°F8.2°C 44.8°F7.1°C 93% 2.7 mph NW4.3 kmh NW 4.5 mph7.2 kmh 29.92 in1013.2 mb 0.00 in0.0 mm 0.00 in0.0 mm 0.02 in0.5 mm